createdAt,value
2017-11-15T00:00:50.244Z,-0.35
2017-11-15T00:03:17.682Z,-0.33
2017-11-15T00:05:44.433Z,-0.37
2017-11-15T00:08:11.124Z,-0.31
2017-11-15T00:10:38.506Z,-0.32
2017-11-15T00:13:05.991Z,-0.47
2017-11-15T00:15:32.674Z,-0.47
2017-11-15T00:17:59.338Z,-0.47
2017-11-15T00:20:26.028Z,-0.48
2017-11-15T00:22:52.715Z,-0.51
2017-11-15T00:25:19.413Z,-0.53
2017-11-15T00:27:46.084Z,-0.54
2017-11-15T00:30:13.491Z,-0.55
2017-11-15T00:32:40.190Z,-0.55
2017-11-15T00:35:07.164Z,-0.56
2017-11-15T00:37:33.950Z,-0.57
2017-11-15T00:40:00.731Z,-0.51
2017-11-15T00:42:27.487Z,-0.61
2017-11-15T00:44:54.181Z,-0.56
2017-11-15T00:47:20.933Z,-0.54
2017-11-15T00:49:47.730Z,-0.66
2017-11-15T00:52:15.047Z,-0.56
2017-11-15T00:54:42.520Z,-0.67
2017-11-15T00:57:09.956Z,-0.51
2017-11-15T00:59:36.628Z,-0.48
2017-11-15T01:02:04.027Z,-0.62
2017-11-15T01:04:30.723Z,-0.71
2017-11-15T01:06:58.169Z,-0.91
2017-11-15T01:09:24.821Z,-0.87
2017-11-15T01:11:52.247Z,-0.72
2017-11-15T01:14:19.297Z,-0.60
2017-11-15T01:16:46.911Z,-0.51
2017-11-15T01:19:14.347Z,-0.60
2017-11-15T01:21:41.084Z,-0.54
2017-11-15T01:24:07.743Z,-0.52
2017-11-15T01:26:35.184Z,-0.52
2017-11-15T01:29:02.932Z,-0.56
2017-11-15T01:31:29.599Z,-0.53
2017-11-15T01:33:56.291Z,-0.58
2017-11-15T01:36:23.000Z,-0.65
2017-11-15T01:38:50.439Z,-0.76
2017-11-15T01:41:17.144Z,-0.58
2017-11-15T01:43:43.908Z,-0.63
2017-11-15T01:46:10.634Z,-0.65
2017-11-15T01:48:37.359Z,-0.70
2017-11-15T01:51:05.180Z,-0.55
2017-11-15T01:53:31.914Z,-0.69
2017-11-15T01:55:58.609Z,-0.69
2017-11-15T01:58:26.135Z,-0.73
2017-11-15T02:01:11.005Z,-0.65
2017-11-15T02:03:37.728Z,-0.73
2017-11-15T02:06:04.455Z,-0.76
2017-11-15T02:08:31.115Z,-0.75
2017-11-15T02:10:57.845Z,-0.80
2017-11-15T02:13:24.571Z,-0.62
2017-11-15T02:15:51.271Z,-0.65
2017-11-15T02:18:17.987Z,-0.59
2017-11-15T02:20:45.763Z,-0.59
2017-11-15T02:23:12.500Z,-0.69
2017-11-15T02:25:39.298Z,-0.81
2017-11-15T02:28:07.865Z,-0.92
2017-11-15T02:30:34.633Z,-0.81
2017-11-15T02:33:02.203Z,-0.72
2017-11-15T02:35:29.671Z,-0.77
2017-11-15T02:37:56.434Z,-0.83
2017-11-15T02:40:23.255Z,-0.95
2017-11-15T02:42:50.812Z,-0.93
2017-11-15T02:45:18.308Z,-0.85
2017-11-15T02:47:45.116Z,-0.84
2017-11-15T02:50:12.265Z,-0.84
2017-11-15T02:52:39.757Z,-0.89
2017-11-15T02:55:06.477Z,-1.11
2017-11-15T02:57:34.025Z,-1.08
2017-11-15T03:00:00.734Z,-1.13
2017-11-15T03:02:27.547Z,-1.12
2017-11-15T03:04:54.247Z,-1.06
2017-11-15T03:07:20.965Z,-1.06
2017-11-15T03:09:47.770Z,-1.13
2017-11-15T03:12:15.165Z,-1.13
2017-11-15T03:14:41.867Z,-1.19
2017-11-15T03:17:09.303Z,-1.17
2017-11-15T03:19:35.961Z,-1.18
2017-11-15T03:22:03.433Z,-1.30
2017-11-15T03:24:30.917Z,-1.28
2017-11-15T03:26:57.549Z,-1.29
2017-11-15T03:29:24.278Z,-1.29
2017-11-15T03:31:51.708Z,-1.39
2017-11-15T03:34:18.395Z,-1.33
2017-11-15T03:36:46.770Z,-1.35
2017-11-15T03:39:14.204Z,-1.37
2017-11-15T03:41:40.977Z,-1.40
2017-11-15T03:44:07.661Z,-1.51
2017-11-15T03:46:34.356Z,-1.62
2017-11-15T03:49:01.767Z,-1.58
2017-11-15T03:51:28.439Z,-1.62
2017-11-15T03:53:55.131Z,-1.37
2017-11-15T03:56:21.806Z,-1.37
2017-11-15T03:58:48.472Z,-1.32
2017-11-15T04:01:15.897Z,-1.32
2017-11-15T04:03:42.550Z,-1.47
2017-11-15T04:06:09.227Z,-1.42
2017-11-15T04:08:36.709Z,-1.44
2017-11-15T04:11:04.156Z,-1.42
2017-11-15T04:13:31.562Z,-1.43
2017-11-15T04:15:58.240Z,-1.32
2017-11-15T04:18:24.923Z,-1.29
2017-11-15T04:20:52.029Z,-1.21
2017-11-15T04:23:18.751Z,-1.23
2017-11-15T04:25:46.166Z,-1.34
2017-11-15T04:28:12.843Z,-1.37
2017-11-15T04:30:39.523Z,-1.37
2017-11-15T04:33:06.299Z,-1.29
2017-11-15T04:35:33.006Z,-1.24
2017-11-15T04:38:00.060Z,-1.28
2017-11-15T04:40:26.736Z,-1.36
2017-11-15T04:42:54.269Z,-1.42
2017-11-15T04:45:21.004Z,-1.36
2017-11-15T04:47:47.723Z,-1.33
2017-11-15T04:50:15.141Z,-1.33
2017-11-15T04:52:42.569Z,-1.34
2017-11-15T04:55:09.227Z,-1.34
2017-11-15T04:57:36.662Z,-1.34
2017-11-15T05:00:03.716Z,-1.34
2017-11-15T05:02:30.386Z,-1.41
2017-11-15T05:04:57.781Z,-1.35
2017-11-15T05:07:24.453Z,-1.32
2017-11-15T05:09:51.140Z,-1.29
2017-11-15T05:12:17.818Z,-1.33
2017-11-15T05:14:44.502Z,-1.44
2017-11-15T05:17:11.161Z,-1.43
2017-11-15T05:19:38.666Z,-1.45
2017-11-15T05:22:05.460Z,-1.38
2017-11-15T05:24:32.922Z,-1.34
2017-11-15T05:27:00.366Z,-1.34
2017-11-15T05:29:27.116Z,-1.39
2017-11-15T05:31:53.898Z,-1.40
2017-11-15T05:34:20.547Z,-1.56
2017-11-15T05:36:47.243Z,-1.61
2017-11-15T05:39:14.938Z,-1.52
2017-11-15T05:41:42.327Z,-1.34
2017-11-15T05:44:09.032Z,-1.65
2017-11-15T05:46:36.428Z,-1.50
2017-11-15T05:49:03.119Z,-1.44
2017-11-15T05:51:29.848Z,-1.38
2017-11-15T05:53:56.623Z,-1.33
2017-11-15T05:56:24.106Z,-1.37
2017-11-15T05:58:50.802Z,-1.32
2017-11-15T06:01:17.468Z,-1.27
2017-11-15T06:03:44.895Z,-1.23
2017-11-15T06:06:11.599Z,-1.19
2017-11-15T06:08:39.191Z,-1.14
2017-11-15T06:11:05.940Z,-1.15
2017-11-15T06:13:33.371Z,-1.20
2017-11-15T06:15:59.995Z,-1.27
2017-11-15T06:18:26.704Z,-1.18
2017-11-15T06:20:53.369Z,-1.02
2017-11-15T06:23:20.845Z,-0.90
2017-11-15T06:25:47.613Z,-0.84
2017-11-15T06:28:14.972Z,-0.85
2017-11-15T06:30:41.718Z,-0.85
2017-11-15T06:33:08.364Z,-0.03
2017-11-15T06:35:35.048Z,1.85
2017-11-15T06:38:01.715Z,4.12
2017-11-15T06:40:28.374Z,6.24
2017-11-15T06:42:55.054Z,8.23
2017-11-15T06:45:21.722Z,10.00
2017-11-15T06:47:48.351Z,11.28
2017-11-15T06:50:15.048Z,13.09
2017-11-15T06:52:41.694Z,14.02
2017-11-15T06:55:08.399Z,15.43
2017-11-15T06:57:35.076Z,16.82
2017-11-15T07:00:01.740Z,17.95
2017-11-15T07:02:28.428Z,18.55
2017-11-15T07:04:55.151Z,19.07
2017-11-15T07:07:24.736Z,17.00
2017-11-15T07:09:51.525Z,17.61
2017-11-15T07:12:18.211Z,17.23
2017-11-15T07:14:44.885Z,19.78
2017-11-15T07:17:11.581Z,19.60
2017-11-15T07:19:38.274Z,19.05
2017-11-15T07:22:04.968Z,20.13
2017-11-15T07:24:31.608Z,18.78
2017-11-15T07:26:58.272Z,18.27
2017-11-15T07:29:24.896Z,17.06
2017-11-15T07:31:51.552Z,15.42
2017-11-15T07:34:18.228Z,13.74
2017-11-15T07:36:44.892Z,12.85
2017-11-15T07:39:11.542Z,14.00
2017-11-15T07:41:38.973Z,14.96
2017-11-15T07:44:05.625Z,15.55
2017-11-15T07:46:32.313Z,16.08
2017-11-15T07:48:59.032Z,15.94
2017-11-15T07:51:26.436Z,14.25
2017-11-15T07:53:53.151Z,11.54
2017-11-15T07:56:19.836Z,10.52
2017-11-15T07:58:46.540Z,9.84
2017-11-15T08:01:13.189Z,7.90
2017-11-15T08:03:39.894Z,7.56
2017-11-15T08:06:06.579Z,7.70
2017-11-15T08:08:33.257Z,7.74
2017-11-15T08:11:00.098Z,6.66
2017-11-15T08:13:26.772Z,7.14
2017-11-15T08:15:54.190Z,7.36
2017-11-15T08:18:20.884Z,7.89
2017-11-15T08:20:48.314Z,8.19
2017-11-15T08:23:14.986Z,7.92
2017-11-15T08:25:42.428Z,7.59
2017-11-15T08:28:09.135Z,8.35
2017-11-15T08:30:35.838Z,8.39
2017-11-15T08:33:03.312Z,7.66
2017-11-15T08:35:29.992Z,7.03
2017-11-15T08:37:56.720Z,7.31
2017-11-15T08:40:23.454Z,6.65
2017-11-15T08:42:50.136Z,7.22
2017-11-15T08:45:16.864Z,6.88
2017-11-15T08:47:43.590Z,6.66
2017-11-15T08:50:10.320Z,7.22
2017-11-15T08:52:37.079Z,7.37
2017-11-15T08:55:03.860Z,7.15
2017-11-15T08:57:30.590Z,6.94
2017-11-15T08:59:57.300Z,7.35
2017-11-15T09:02:24.009Z,7.52
2017-11-15T09:04:50.694Z,7.74
2017-11-15T09:07:18.019Z,8.29
2017-11-15T09:09:44.782Z,8.85
2017-11-15T09:12:11.484Z,8.48
2017-11-15T09:14:38.190Z,8.64
2017-11-15T09:17:05.676Z,9.12
2017-11-15T09:19:32.348Z,9.23
2017-11-15T09:21:59.049Z,9.47
2017-11-15T09:24:25.716Z,9.70
2017-11-15T09:26:52.416Z,9.94
2017-11-15T09:29:19.156Z,9.66
2017-11-15T09:31:45.856Z,10.13
2017-11-15T09:34:12.527Z,10.11
2017-11-15T09:36:40.018Z,10.15
2017-11-15T09:39:07.751Z,10.39
2017-11-15T09:41:35.211Z,10.35
2017-11-15T09:44:02.703Z,9.96
2017-11-15T09:46:30.396Z,10.33
2017-11-15T09:48:57.042Z,10.15
2017-11-15T09:51:23.793Z,10.27
2017-11-15T09:53:50.493Z,9.87
2017-11-15T09:56:17.184Z,9.76
2017-11-15T09:58:43.845Z,9.39
2017-11-15T10:01:10.585Z,8.86
2017-11-15T10:03:37.261Z,8.40
2017-11-15T10:06:03.932Z,8.65
2017-11-15T10:08:31.386Z,8.18
2017-11-15T10:10:58.054Z,8.60
2017-11-15T10:13:25.626Z,8.60
2017-11-15T10:15:52.355Z,8.68
2017-11-15T10:18:19.059Z,8.87
2017-11-15T10:20:45.741Z,8.76
2017-11-15T10:23:12.421Z,8.98
2017-11-15T10:25:39.857Z,8.66
2017-11-15T10:28:06.530Z,8.89
2017-11-15T10:30:33.964Z,8.91
2017-11-15T10:33:00.639Z,8.92
2017-11-15T10:35:28.055Z,9.18
2017-11-15T10:37:54.745Z,9.28
2017-11-15T10:40:22.181Z,9.31
2017-11-15T10:42:48.833Z,9.07
2017-11-15T10:45:16.304Z,9.38
2017-11-15T10:47:45.706Z,9.65
2017-11-15T10:50:13.117Z,9.57
2017-11-15T10:52:39.829Z,10.18
2017-11-15T10:55:06.495Z,10.39
2017-11-15T10:57:33.163Z,10.59
2017-11-15T10:59:59.994Z,9.80
2017-11-15T11:02:26.719Z,10.34
2017-11-15T11:04:53.479Z,10.14
2017-11-15T11:07:20.225Z,9.49
2017-11-15T11:09:46.925Z,9.44
2017-11-15T11:12:13.598Z,9.96
2017-11-15T11:14:41.254Z,10.01
2017-11-15T11:17:07.948Z,9.98
2017-11-15T11:19:34.632Z,9.94
2017-11-15T11:22:01.361Z,9.60
2017-11-15T11:24:28.857Z,10.10
2017-11-15T11:26:55.568Z,10.52
2017-11-15T11:29:23.024Z,10.13
2017-11-15T11:31:50.434Z,9.60
2017-11-15T11:34:17.159Z,9.01
2017-11-15T11:36:43.850Z,9.31
2017-11-15T11:39:10.512Z,9.82
2017-11-15T11:41:37.955Z,10.29
2017-11-15T11:44:04.706Z,10.44
2017-11-15T11:46:32.117Z,10.02
2017-11-15T11:48:58.782Z,9.66
2017-11-15T11:51:25.530Z,9.72
2017-11-15T11:53:52.230Z,10.32
2017-11-15T11:56:18.921Z,10.28
2017-11-15T11:58:45.658Z,10.13
2017-11-15T12:01:12.492Z,9.75
2017-11-15T12:03:39.200Z,9.92
2017-11-15T12:06:06.685Z,9.76
2017-11-15T12:08:33.382Z,9.21
2017-11-15T12:11:00.055Z,8.80
2017-11-15T12:13:26.835Z,9.15
2017-11-15T12:15:54.377Z,9.41
2017-11-15T12:18:21.115Z,9.58
2017-11-15T12:20:47.841Z,9.41
2017-11-15T12:23:14.524Z,8.96
2017-11-15T12:25:41.209Z,8.79
2017-11-15T12:28:08.670Z,8.71
2017-11-15T12:30:36.108Z,8.83
2017-11-15T12:33:02.857Z,9.05
2017-11-15T12:35:29.598Z,8.87
2017-11-15T12:37:56.344Z,8.90
2017-11-15T12:40:23.015Z,9.23
2017-11-15T12:42:50.436Z,9.30
2017-11-15T12:45:17.173Z,9.54
2017-11-15T12:47:43.848Z,9.62
2017-11-15T12:50:10.606Z,9.39
2017-11-15T12:52:38.028Z,9.64
2017-11-15T12:55:04.725Z,9.74
2017-11-15T12:57:31.435Z,9.38
2017-11-15T12:59:58.903Z,9.62
2017-11-15T13:02:26.323Z,9.92
2017-11-15T13:04:53.033Z,10.00
2017-11-15T13:07:19.713Z,9.71
2017-11-15T13:09:46.393Z,9.98
2017-11-15T13:12:13.839Z,10.03
2017-11-15T13:14:40.531Z,10.01
2017-11-15T13:17:07.294Z,9.44
2017-11-15T13:19:34.104Z,9.39
2017-11-15T13:22:01.571Z,9.47
2017-11-15T13:24:28.303Z,9.29
2017-11-15T13:26:55.026Z,9.34
2017-11-15T13:29:21.749Z,9.36
2017-11-15T13:31:49.466Z,9.38
2017-11-15T13:34:16.219Z,9.27
2017-11-15T13:36:42.968Z,8.96
2017-11-15T13:39:09.657Z,8.86
2017-11-15T13:41:36.360Z,9.00
2017-11-15T13:44:03.143Z,8.79
2017-11-15T13:46:29.840Z,8.77
2017-11-15T13:48:56.531Z,8.62
2017-11-15T13:51:23.214Z,8.61
2017-11-15T13:53:49.883Z,8.28
2017-11-15T13:56:16.583Z,8.38
2017-11-15T13:58:44.013Z,8.22
2017-11-15T14:01:11.616Z,8.22
2017-11-15T14:03:39.069Z,8.22
2017-11-15T14:06:06.504Z,8.04
2017-11-15T14:08:33.157Z,8.04
2017-11-15T14:11:00.859Z,7.94
2017-11-15T14:13:28.268Z,7.82
2017-11-15T14:15:54.989Z,7.94
2017-11-15T14:18:22.477Z,7.89
2017-11-15T14:20:49.134Z,7.68
2017-11-15T14:23:15.800Z,7.78
2017-11-15T14:25:43.237Z,7.53
2017-11-15T14:28:09.901Z,7.66
2017-11-15T14:30:37.298Z,7.64
2017-11-15T14:33:03.984Z,7.71
2017-11-15T14:35:31.427Z,7.65
2017-11-15T14:37:58.194Z,7.67
2017-11-15T14:40:24.860Z,7.36
2017-11-15T14:42:51.532Z,7.51
2017-11-15T14:45:18.207Z,7.58
2017-11-15T14:47:44.950Z,7.62
2017-11-15T14:50:11.635Z,7.53
2017-11-15T14:52:38.384Z,7.25
2017-11-15T14:55:05.077Z,7.09
2017-11-15T14:57:31.765Z,6.64
2017-11-15T14:59:58.487Z,6.60
2017-11-15T15:02:25.307Z,6.63
2017-11-15T15:04:51.979Z,6.51
2017-11-15T15:07:19.395Z,6.27
2017-11-15T15:09:46.099Z,6.16
2017-11-15T15:12:13.741Z,6.03
2017-11-15T15:14:40.412Z,6.07
2017-11-15T15:17:07.216Z,5.74
2017-11-15T15:19:33.934Z,5.45
2017-11-15T15:22:01.364Z,5.44
2017-11-15T15:24:28.100Z,5.31
2017-11-15T15:26:55.602Z,5.28
2017-11-15T15:29:22.326Z,5.11
2017-11-15T15:31:49.048Z,4.82
2017-11-15T15:34:15.713Z,4.72
2017-11-15T15:36:42.414Z,4.63
2017-11-15T15:39:09.097Z,4.50
2017-11-15T15:41:35.803Z,4.44
2017-11-15T15:44:03.331Z,4.12
2017-11-15T15:46:30.091Z,3.91
2017-11-15T15:48:56.818Z,3.77
2017-11-15T15:51:23.506Z,3.82
2017-11-15T15:53:50.936Z,3.87
2017-11-15T15:56:17.600Z,3.77
2017-11-15T15:58:45.014Z,3.60
2017-11-15T16:01:11.696Z,3.69
2017-11-15T16:03:38.389Z,3.72
2017-11-15T16:06:05.105Z,3.84
2017-11-15T16:08:31.832Z,3.76
2017-11-15T16:10:59.285Z,3.68
2017-11-15T16:13:26.699Z,3.38
2017-11-15T16:15:53.405Z,3.43
2017-11-15T16:18:20.845Z,3.29
2017-11-15T16:20:47.505Z,3.32
2017-11-15T16:23:15.065Z,3.20
2017-11-15T16:25:42.523Z,3.19
2017-11-15T16:28:10.049Z,3.22
2017-11-15T16:30:36.756Z,3.28
2017-11-15T16:33:03.475Z,3.20
2017-11-15T16:35:30.919Z,3.10
2017-11-15T16:37:57.624Z,3.16
2017-11-15T16:40:24.296Z,3.20
2017-11-15T16:42:51.063Z,3.22
2017-11-15T16:45:18.571Z,3.22
2017-11-15T16:47:45.256Z,3.20
2017-11-15T16:50:11.951Z,3.09
2017-11-15T16:52:38.720Z,2.77
2017-11-15T16:55:05.440Z,2.78
2017-11-15T16:57:32.176Z,2.75
2017-11-15T16:59:58.878Z,2.62
2017-11-15T17:02:25.680Z,2.60
2017-11-15T17:04:52.386Z,2.68
2017-11-15T17:07:19.860Z,2.96
2017-11-15T17:09:46.674Z,3.13
2017-11-15T17:12:13.389Z,3.23
2017-11-15T17:14:40.112Z,3.19
2017-11-15T17:17:06.841Z,3.24
2017-11-15T17:19:33.549Z,3.20
2017-11-15T17:22:00.255Z,3.26
2017-11-15T17:24:26.960Z,3.38
2017-11-15T17:26:53.676Z,3.49
2017-11-15T17:29:20.433Z,3.43
2017-11-15T17:31:47.916Z,3.32
2017-11-15T17:34:14.629Z,3.45
2017-11-15T17:36:41.348Z,3.52
2017-11-15T17:39:08.041Z,3.73
2017-11-15T17:41:34.860Z,3.76
2017-11-15T17:44:01.581Z,3.87
2017-11-15T17:46:28.395Z,3.96
2017-11-15T17:48:55.180Z,4.07
2017-11-15T17:51:21.936Z,3.98
2017-11-15T17:53:48.623Z,3.84
2017-11-15T17:56:15.338Z,3.78
2017-11-15T17:58:42.793Z,3.80
2017-11-15T18:01:09.497Z,4.02
2017-11-15T18:03:36.415Z,4.08
2017-11-15T18:06:03.110Z,4.12
2017-11-15T18:08:29.803Z,4.07
2017-11-15T18:10:56.520Z,4.21
2017-11-15T18:13:23.192Z,4.34
2017-11-15T18:15:49.869Z,4.17
2017-11-15T18:18:16.622Z,4.14
2017-11-15T18:20:43.344Z,4.19
2017-11-15T18:23:10.051Z,4.13
2017-11-15T18:25:37.498Z,4.13
2017-11-15T18:28:04.923Z,4.26
2017-11-15T18:30:31.619Z,4.35
2017-11-15T18:32:59.065Z,4.20
2017-11-15T18:35:25.761Z,4.38
2017-11-15T18:37:52.481Z,4.33
2017-11-15T18:40:19.157Z,4.34
2017-11-15T18:42:45.828Z,4.36
2017-11-15T18:45:12.565Z,4.40
2017-11-15T18:47:39.272Z,4.47
2017-11-15T18:50:05.983Z,4.56
2017-11-15T18:52:32.736Z,4.49
2017-11-15T18:54:59.408Z,4.64
2017-11-15T18:57:26.129Z,4.64
2017-11-15T18:59:52.801Z,4.72
2017-11-15T19:02:19.475Z,4.58
2017-11-15T19:04:46.946Z,4.64
2017-11-15T19:07:14.412Z,4.74
2017-11-15T19:09:41.841Z,4.86
2017-11-15T19:12:08.582Z,4.92
2017-11-15T19:14:35.267Z,4.85
2017-11-15T19:17:01.992Z,4.92
2017-11-15T19:19:29.449Z,5.00
2017-11-15T19:21:56.177Z,4.89
2017-11-15T19:24:23.947Z,4.83
2017-11-15T19:26:52.660Z,4.76
2017-11-15T19:29:20.375Z,4.85
2017-11-15T19:31:47.049Z,4.78
2017-11-15T19:34:13.789Z,4.61
2017-11-15T19:36:40.488Z,4.74
2017-11-15T19:39:07.312Z,4.73
2017-11-15T19:41:34.797Z,4.86
2017-11-15T19:44:01.513Z,4.93
2017-11-15T19:46:28.275Z,4.69
2017-11-15T19:48:55.068Z,4.76
2017-11-15T19:51:21.786Z,5.01
2017-11-15T19:53:48.516Z,4.95
2017-11-15T19:56:15.319Z,4.94
2017-11-15T19:58:41.996Z,4.94
2017-11-15T20:01:08.703Z,4.85
2017-11-15T20:03:35.406Z,4.93
2017-11-15T20:06:02.068Z,5.00
2017-11-15T20:08:28.852Z,5.13
2017-11-15T20:10:56.251Z,5.27
2017-11-15T20:13:22.983Z,5.10
2017-11-15T20:15:49.684Z,5.13
2017-11-15T20:18:16.382Z,5.19
2017-11-15T20:20:43.161Z,5.16
2017-11-15T20:23:09.931Z,5.11
2017-11-15T20:25:37.619Z,5.21
2017-11-15T20:28:04.285Z,5.39
2017-11-15T20:30:31.768Z,5.29
2017-11-15T20:32:58.497Z,5.20
2017-11-15T20:35:25.751Z,5.17
2017-11-15T20:37:53.233Z,5.31
2017-11-15T20:40:19.965Z,5.44
2017-11-15T20:42:47.004Z,5.43
2017-11-15T20:45:13.723Z,5.48
2017-11-15T20:47:40.525Z,5.51
2017-11-15T20:50:07.315Z,5.65
2017-11-15T20:52:34.057Z,5.65
2017-11-15T20:55:00.745Z,5.47
2017-11-15T20:57:27.635Z,5.61
2017-11-15T20:59:55.337Z,5.67
2017-11-15T21:02:22.024Z,5.65
2017-11-15T21:04:48.779Z,5.72
2017-11-15T21:07:15.512Z,5.84
2017-11-15T21:09:42.226Z,5.88
2017-11-15T21:12:08.959Z,5.78
2017-11-15T21:14:35.641Z,5.40
2017-11-15T21:17:02.368Z,5.50
2017-11-15T21:19:29.072Z,5.46
2017-11-15T21:21:56.523Z,5.28
2017-11-15T21:24:23.980Z,5.45
2017-11-15T21:26:51.435Z,5.39
2017-11-15T21:29:18.478Z,5.53
2017-11-15T21:31:45.375Z,5.39
2017-11-15T21:34:12.092Z,5.48
2017-11-15T21:36:38.886Z,5.44
2017-11-15T21:39:06.572Z,5.46
2017-11-15T21:41:33.243Z,5.33
2017-11-15T21:44:03.040Z,5.40
2017-11-15T21:46:29.709Z,5.22
2017-11-15T21:48:56.461Z,5.31
2017-11-15T21:51:23.151Z,5.47
2017-11-15T21:53:49.820Z,5.46
2017-11-15T21:56:16.545Z,5.30
2017-11-15T21:58:43.227Z,5.19
2017-11-15T22:01:10.679Z,5.23
2017-11-15T22:03:39.910Z,5.33
2017-11-15T22:18:10.247Z,5.83
2017-11-15T22:28:38.476Z,5.85
2017-11-15T22:34:12.106Z,5.87
2017-11-15T22:36:39.664Z,5.90
2017-11-15T22:39:07.752Z,5.97
2017-11-15T22:41:35.565Z,5.93
2017-11-15T22:44:05.770Z,5.86
2017-11-15T22:49:06.724Z,5.92
2017-11-15T22:51:38.917Z,5.68
2017-11-15T22:54:06.707Z,5.99
2017-11-15T22:56:33.501Z,5.90
2017-11-15T22:59:00.245Z,6.09
2017-11-15T23:01:26.956Z,6.12
2017-11-15T23:03:54.392Z,6.11
2017-11-15T23:06:21.099Z,5.87
2017-11-15T23:08:47.815Z,6.09
2017-11-15T23:11:14.508Z,5.94
2017-11-15T23:13:41.270Z,5.71
2017-11-15T23:16:08.934Z,5.54
2017-11-15T23:18:35.673Z,5.58
2017-11-15T23:21:02.435Z,5.65
2017-11-15T23:23:29.910Z,5.57
2017-11-15T23:25:56.686Z,5.38
2017-11-15T23:28:23.371Z,5.42
2017-11-15T23:30:50.043Z,5.24
2017-11-15T23:33:17.480Z,5.15
2017-11-15T23:35:44.948Z,4.97
2017-11-15T23:38:11.619Z,5.18
2017-11-15T23:40:38.811Z,5.17
2017-11-15T23:43:05.496Z,5.31
2017-11-15T23:45:33.095Z,5.32
2017-11-15T23:47:59.764Z,5.27
2017-11-15T23:50:26.491Z,5.33
2017-11-15T23:52:53.348Z,5.49
2017-11-15T23:55:20.019Z,5.52
2017-11-15T23:57:46.862Z,5.45
